createdAt,value
2022-08-27T00:02:18.227Z,44.17
2022-08-27T00:04:47.514Z,44.17
2022-08-27T00:07:16.633Z,44.90
2022-08-27T00:09:45.106Z,44.18
2022-08-27T00:12:13.640Z,44.02
2022-08-27T00:14:42.034Z,46.12
2022-08-27T00:17:11.238Z,44.62
2022-08-27T00:19:40.661Z,44.03
2022-08-27T00:22:10.197Z,46.95
2022-08-27T00:24:46.389Z,46.20
2022-08-27T00:27:18.535Z,45.82
2022-08-27T00:29:48.232Z,45.95
2022-08-27T00:32:17.062Z,45.61
2022-08-27T00:34:45.956Z,45.40
2022-08-27T00:37:14.794Z,45.87
2022-08-27T00:39:43.339Z,45.90
2022-08-27T00:42:13.203Z,46.75
2022-08-27T00:44:41.695Z,46.81
2022-08-27T00:47:17.076Z,46.41
2022-08-27T00:50:08.012Z,46.53
2022-08-27T00:52:54.509Z,46.64
2022-08-27T00:55:28.725Z,46.15
2022-08-27T00:58:09.255Z,46.46
2022-08-27T01:00:38.085Z,46.18
2022-08-27T01:03:07.506Z,46.36
2022-08-27T01:05:36.978Z,46.86
2022-08-27T01:08:14.726Z,46.94
2022-08-27T01:10:44.204Z,47.29
2022-08-27T01:13:16.542Z,47.70
2022-08-27T01:15:46.667Z,47.84
2022-08-27T01:18:16.042Z,47.93
2022-08-27T01:20:56.432Z,47.95
2022-08-27T01:23:50.744Z,48.80
2022-08-27T01:26:20.526Z,48.39
2022-08-27T01:28:49.399Z,48.17
2022-08-27T01:31:17.914Z,48.21
2022-08-27T01:34:00.386Z,48.54
2022-08-27T01:36:29.740Z,49.26
2022-08-27T01:38:58.722Z,49.24
2022-08-27T01:41:27.409Z,48.63
2022-08-27T01:43:55.979Z,48.44
2022-08-27T01:46:27.737Z,48.44
2022-08-27T01:48:56.392Z,48.35
2022-08-27T01:51:24.827Z,48.61
2022-08-27T01:53:53.532Z,48.28
2022-08-27T01:56:22.053Z,48.55
2022-08-27T01:58:50.503Z,48.26
2022-08-27T02:01:19.575Z,48.29
2022-08-27T02:03:49.372Z,48.14
2022-08-27T02:06:17.830Z,48.56
2022-08-27T02:08:46.590Z,48.65
2022-08-27T02:11:15.100Z,48.33
2022-08-27T02:13:43.548Z,48.16
2022-08-27T02:16:13.211Z,47.68
2022-08-27T02:18:42.654Z,47.88
2022-08-27T02:21:11.819Z,48.25
2022-08-27T02:23:42.048Z,47.66
2022-08-27T02:26:10.819Z,48.51
2022-08-27T02:28:39.251Z,48.25
2022-08-27T02:31:07.963Z,48.28
2022-08-27T02:33:36.515Z,48.24
2022-08-27T02:36:06.072Z,48.37
2022-08-27T02:38:35.064Z,47.50
2022-08-27T02:41:03.622Z,47.29
2022-08-27T02:43:32.116Z,46.78
2022-08-27T02:46:01.515Z,46.88
2022-08-27T02:48:30.212Z,47.34
2022-08-27T02:50:58.629Z,47.57
2022-08-27T02:53:28.476Z,48.04
2022-08-27T02:55:56.927Z,48.55
2022-08-27T02:58:25.780Z,48.80
2022-08-27T03:00:54.326Z,48.71
2022-08-27T03:03:22.898Z,48.72
2022-08-27T03:05:52.586Z,49.34
2022-08-27T03:08:21.015Z,48.32
2022-08-27T03:10:50.541Z,47.59
2022-08-27T03:13:19.142Z,48.03
2022-08-27T03:15:48.165Z,48.43
2022-08-27T03:18:19.670Z,48.52
2022-08-27T03:20:53.801Z,48.84
2022-08-27T03:23:25.312Z,48.46
2022-08-27T03:25:58.218Z,48.08
2022-08-27T03:28:32.917Z,48.33
2022-08-27T03:31:05.705Z,48.36
2022-08-27T03:33:37.818Z,47.79
2022-08-27T03:36:07.433Z,48.05
2022-08-27T03:38:36.421Z,48.66
2022-08-27T03:41:06.552Z,48.87
2022-08-27T03:43:35.548Z,49.06
2022-08-27T03:46:04.059Z,48.81
2022-08-27T03:48:34.043Z,48.31
2022-08-27T03:51:13.405Z,48.27
2022-08-27T03:53:44.367Z,48.15
2022-08-27T03:56:14.539Z,48.11
2022-08-27T03:58:42.957Z,47.47
2022-08-27T04:01:11.588Z,46.95
2022-08-27T04:03:40.165Z,46.73
2022-08-27T04:06:10.446Z,46.85
2022-08-27T04:08:38.933Z,47.36
2022-08-27T04:11:07.786Z,46.90
2022-08-27T04:13:36.711Z,46.44
2022-08-27T04:16:05.932Z,47.04
2022-08-27T04:18:34.423Z,47.47
2022-08-27T04:21:13.795Z,48.13
2022-08-27T04:23:43.245Z,49.03
2022-08-27T04:26:12.198Z,49.35
2022-08-27T04:28:40.756Z,48.93
2022-08-27T04:31:16.622Z,49.17
2022-08-27T04:33:50.780Z,49.22
2022-08-27T04:36:20.511Z,49.37
2022-08-27T04:38:49.803Z,49.42
2022-08-27T04:41:26.382Z,49.62
2022-08-27T04:43:57.756Z,49.31
2022-08-27T04:46:30.501Z,49.64
2022-08-27T04:49:01.475Z,49.65
2022-08-27T04:51:31.156Z,49.30
2022-08-27T04:54:02.868Z,49.22
2022-08-27T04:56:31.750Z,49.27
2022-08-27T04:59:03.438Z,49.08
2022-08-27T05:01:32.171Z,48.62
2022-08-27T05:04:00.765Z,48.24
2022-08-27T05:06:29.853Z,48.73
2022-08-27T05:08:59.008Z,48.98
2022-08-27T05:11:32.209Z,49.05
2022-08-27T05:14:09.533Z,48.69
2022-08-27T05:16:38.186Z,48.78
2022-08-27T05:19:09.658Z,48.74
2022-08-27T05:21:40.178Z,49.44
2022-08-27T05:24:08.717Z,49.49
2022-08-27T05:26:37.834Z,49.75
2022-08-27T05:29:06.627Z,49.65
2022-08-27T05:31:35.909Z,49.22
2022-08-27T05:34:10.564Z,49.04
2022-08-27T05:36:48.921Z,48.48
2022-08-27T05:39:17.790Z,48.74
2022-08-27T05:41:46.519Z,48.66
2022-08-27T05:47:05.668Z,47.88
2022-08-27T05:49:34.132Z,47.59
2022-08-27T05:52:02.830Z,47.53
2022-08-27T05:54:31.381Z,47.52
2022-08-27T05:56:59.822Z,47.19
2022-08-27T05:59:47.888Z,47.38
2022-08-27T06:02:16.356Z,47.85
2022-08-27T06:04:44.790Z,47.52
2022-08-27T06:07:13.807Z,47.83
2022-08-27T06:09:43.360Z,47.26
2022-08-27T06:12:12.111Z,47.79
2022-08-27T06:14:40.573Z,48.11
2022-08-27T06:17:09.103Z,47.63
2022-08-27T06:19:37.817Z,47.89
2022-08-27T06:22:10.717Z,47.41
2022-08-27T06:24:41.445Z,47.98
2022-08-27T06:27:14.090Z,47.69
2022-08-27T06:29:43.629Z,47.72
2022-08-27T06:32:14.277Z,47.18
2022-08-27T06:34:43.079Z,46.89
2022-08-27T06:37:11.547Z,46.57
2022-08-27T06:39:40.094Z,46.80
2022-08-27T06:42:13.225Z,46.76
2022-08-27T06:44:42.033Z,47.20
2022-08-27T06:47:10.700Z,46.81
2022-08-27T06:49:41.095Z,47.04
2022-08-27T06:52:09.489Z,46.77
2022-08-27T06:54:39.730Z,47.20
2022-08-27T06:57:08.202Z,46.73
2022-08-27T06:59:36.587Z,48.23
2022-08-27T07:02:07.577Z,47.95
2022-08-27T07:04:36.255Z,48.88
2022-08-27T07:07:04.821Z,48.75
2022-08-27T07:09:34.079Z,47.92
2022-08-27T07:12:03.809Z,48.12
2022-08-27T07:14:37.123Z,47.54
2022-08-27T07:17:10.722Z,47.69
2022-08-27T07:19:40.909Z,47.50
2022-08-27T07:22:10.759Z,48.11
2022-08-27T07:24:40.046Z,48.48
2022-08-27T07:27:08.712Z,47.44
2022-08-27T07:29:37.208Z,46.83
2022-08-27T07:32:05.751Z,46.69
2022-08-27T07:34:34.191Z,46.68
2022-08-27T07:37:02.668Z,46.28
2022-08-27T07:39:31.231Z,46.24
2022-08-27T07:42:18.395Z,46.48
2022-08-27T07:44:47.640Z,46.45
2022-08-27T07:47:16.073Z,45.91
2022-08-27T07:49:44.628Z,45.70
2022-08-27T07:52:13.196Z,46.41
2022-08-27T07:54:42.317Z,46.32
2022-08-27T07:57:11.584Z,46.36
2022-08-27T07:59:40.043Z,46.17
2022-08-27T08:02:08.595Z,45.88
2022-08-27T08:04:37.196Z,45.94
2022-08-27T08:07:05.672Z,45.23
2022-08-27T08:09:34.134Z,45.80
2022-08-27T08:12:02.853Z,46.08
2022-08-27T08:14:32.221Z,46.12
2022-08-27T08:17:02.337Z,45.14
2022-08-27T08:19:32.886Z,46.66
2022-08-27T08:22:04.991Z,46.57
2022-08-27T08:24:35.369Z,45.79
2022-08-27T08:27:07.456Z,45.50
2022-08-27T08:29:37.516Z,44.71
2022-08-27T08:32:06.749Z,44.90
2022-08-27T08:34:35.934Z,44.58
2022-08-27T08:37:06.083Z,44.51
2022-08-27T08:39:36.211Z,44.31
2022-08-27T08:42:07.651Z,44.87
2022-08-27T08:44:48.503Z,43.91
2022-08-27T08:47:22.244Z,43.31
2022-08-27T08:50:08.178Z,42.10
2022-08-27T08:52:50.538Z,41.70
2022-08-27T08:55:47.429Z,41.44
2022-08-27T08:58:27.916Z,41.95
2022-08-27T09:01:01.237Z,41.72
2022-08-27T09:03:33.009Z,41.57
2022-08-27T09:06:07.236Z,41.10
2022-08-27T09:08:42.597Z,41.11
2022-08-27T09:11:30.221Z,41.43
2022-08-27T09:14:03.096Z,41.06
2022-08-27T09:16:32.582Z,40.45
2022-08-27T09:19:02.601Z,40.73
2022-08-27T09:21:55.757Z,40.14
2022-08-27T09:24:49.758Z,39.75
2022-08-27T09:27:20.168Z,41.80
2022-08-27T09:29:54.952Z,41.01
2022-08-27T09:32:31.472Z,40.56
2022-08-27T09:35:03.140Z,39.97
2022-08-27T09:37:39.931Z,40.10
2022-08-27T09:40:23.164Z,39.99
2022-08-27T09:42:55.914Z,39.36
2022-08-27T09:45:30.087Z,39.73
2022-08-27T09:48:22.680Z,39.60
2022-08-27T09:50:54.791Z,39.87
2022-08-27T09:53:30.883Z,39.24
2022-08-27T09:56:03.147Z,39.95
2022-08-27T09:58:46.731Z,39.12
2022-08-27T10:01:27.586Z,38.48
2022-08-27T10:04:12.613Z,38.59
2022-08-27T10:06:47.094Z,39.36
2022-08-27T10:09:21.811Z,40.00
2022-08-27T10:12:08.660Z,39.53
2022-08-27T10:14:44.251Z,39.25
2022-08-27T10:17:23.366Z,37.69
2022-08-27T10:20:30.457Z,37.95
2022-08-27T10:23:23.909Z,37.99
2022-08-27T10:26:09.075Z,37.20
2022-08-27T10:28:54.406Z,37.32
2022-08-27T10:31:47.776Z,37.30
2022-08-27T10:34:28.152Z,37.64
2022-08-27T10:37:40.467Z,37.11
2022-08-27T10:40:19.690Z,37.46
2022-08-27T10:42:48.101Z,36.71
2022-08-27T10:45:46.166Z,36.52
2022-08-27T10:48:31.078Z,36.32
2022-08-27T10:51:08.726Z,36.54
2022-08-27T10:53:58.443Z,36.24
2022-08-27T10:56:44.573Z,36.15
2022-08-27T10:59:38.718Z,36.71
2022-08-27T11:02:36.687Z,36.71
2022-08-27T11:05:20.534Z,37.08
2022-08-27T11:07:55.733Z,37.17
2022-08-27T11:10:30.915Z,36.13
2022-08-27T11:13:08.432Z,35.73
2022-08-27T11:15:41.613Z,37.38
2022-08-27T11:18:19.263Z,37.73
2022-08-27T11:21:10.407Z,37.12
2022-08-27T11:23:54.495Z,36.34
2022-08-27T11:26:23.153Z,35.98
2022-08-27T11:28:59.555Z,35.94
2022-08-27T11:31:38.202Z,35.94
2022-08-27T11:35:02.098Z,36.01
2022-08-27T11:38:12.873Z,35.86
2022-08-27T11:41:02.034Z,35.52
2022-08-27T11:43:35.329Z,35.42
2022-08-27T11:46:08.326Z,35.06
2022-08-27T11:48:41.038Z,35.28
2022-08-27T11:51:14.463Z,34.96
2022-08-27T11:54:00.081Z,35.53
2022-08-27T11:56:28.480Z,35.76
2022-08-27T11:59:28.486Z,35.97
2022-08-27T12:02:10.675Z,34.46
2022-08-27T12:04:42.480Z,35.14
2022-08-27T12:07:13.957Z,35.47
2022-08-27T12:09:51.432Z,35.33
2022-08-27T12:12:36.911Z,35.21
2022-08-27T12:15:17.677Z,34.35
2022-08-27T12:18:13.758Z,34.96
2022-08-27T12:21:06.441Z,34.12
2022-08-27T12:23:49.872Z,34.78
2022-08-27T12:26:35.413Z,34.91
2022-08-27T12:29:34.214Z,34.67
2022-08-27T12:32:36.071Z,33.95
2022-08-27T12:35:29.358Z,33.43
2022-08-27T12:38:21.034Z,33.49
2022-08-27T12:40:53.173Z,33.08
2022-08-27T12:43:27.505Z,34.06
2022-08-27T12:48:44.042Z,33.96
2022-08-27T12:51:18.628Z,32.96
2022-08-27T12:53:57.832Z,33.45
2022-08-27T12:56:34.593Z,33.56
2022-08-27T12:59:20.820Z,33.90
2022-08-27T13:01:58.310Z,34.01
2022-08-27T13:04:31.039Z,32.74
2022-08-27T13:06:59.801Z,33.13
2022-08-27T13:09:31.934Z,33.46
2022-08-27T13:12:03.060Z,32.96
2022-08-27T13:14:38.276Z,32.62
2022-08-27T13:17:15.408Z,33.03
2022-08-27T13:19:58.162Z,32.81
2022-08-27T13:22:35.990Z,33.19
2022-08-27T13:25:06.345Z,33.11
2022-08-27T13:27:37.513Z,33.24
2022-08-27T13:30:08.898Z,32.75
2022-08-27T13:32:39.166Z,32.37
2022-08-27T13:35:11.664Z,32.36
2022-08-27T13:37:45.020Z,32.14
2022-08-27T13:40:32.780Z,32.18
2022-08-27T13:43:13.570Z,32.26
2022-08-27T13:45:42.590Z,32.55
2022-08-27T13:48:12.869Z,33.69
2022-08-27T13:50:49.360Z,32.66
2022-08-27T13:53:42.304Z,32.85
2022-08-27T13:56:11.607Z,32.55
2022-08-27T13:58:40.098Z,32.72
2022-08-27T14:01:10.086Z,33.91
2022-08-27T14:03:55.299Z,34.54
2022-08-27T14:06:45.191Z,33.97
2022-08-27T14:09:28.118Z,33.24
2022-08-27T14:12:06.588Z,33.37
2022-08-27T14:14:41.138Z,33.01
2022-08-27T14:17:35.110Z,32.83
2022-08-27T14:20:06.848Z,33.20
2022-08-27T14:22:38.029Z,33.07
2022-08-27T14:25:06.985Z,32.62
2022-08-27T14:27:39.304Z,32.19
2022-08-27T14:30:16.921Z,33.01
2022-08-27T14:32:45.761Z,33.24
2022-08-27T14:35:16.598Z,33.70
2022-08-27T14:37:54.632Z,34.90
2022-08-27T14:40:23.478Z,34.08
2022-08-27T14:42:52.487Z,33.46
2022-08-27T14:45:23.193Z,33.10
2022-08-27T14:47:52.744Z,33.58
2022-08-27T14:50:21.872Z,33.36
2022-08-27T14:52:50.323Z,33.73
2022-08-27T14:55:18.888Z,33.28
2022-08-27T14:57:47.617Z,34.35
2022-08-27T15:00:17.226Z,35.23
2022-08-27T15:02:48.324Z,34.14
2022-08-27T15:05:19.687Z,35.01
2022-08-27T15:08:04.450Z,34.38
2022-08-27T15:10:33.329Z,35.10
2022-08-27T15:13:02.925Z,34.39
2022-08-27T15:15:31.512Z,35.04
2022-08-27T15:17:59.994Z,34.82
2022-08-27T15:20:28.443Z,35.50
2022-08-27T15:22:57.192Z,34.53
2022-08-27T15:25:26.028Z,35.02
2022-08-27T15:27:54.501Z,34.81
2022-08-27T15:30:27.251Z,34.59
2022-08-27T15:32:56.360Z,34.74
2022-08-27T15:35:27.437Z,33.99
2022-08-27T15:37:57.903Z,34.56
2022-08-27T15:40:32.721Z,34.11
2022-08-27T15:43:05.252Z,34.12
2022-08-27T15:45:34.684Z,34.15
2022-08-27T15:48:04.048Z,34.28
2022-08-27T15:50:34.316Z,35.05
2022-08-27T15:53:08.096Z,35.51
2022-08-27T15:55:41.457Z,34.88
2022-08-27T15:58:12.979Z,35.36
2022-08-27T16:00:44.300Z,34.80
2022-08-27T16:03:14.762Z,35.70
2022-08-27T16:05:46.171Z,35.64
2022-08-27T16:08:14.715Z,35.67
2022-08-27T16:10:44.292Z,34.84
2022-08-27T16:13:12.814Z,35.31
2022-08-27T16:15:41.866Z,35.46
2022-08-27T16:18:12.042Z,35.14
2022-08-27T16:20:42.442Z,35.37
2022-08-27T16:23:11.006Z,35.85
2022-08-27T16:25:40.312Z,36.16
2022-08-27T16:28:08.864Z,35.36
2022-08-27T16:30:40.906Z,35.44
2022-08-27T16:33:11.294Z,36.62
2022-08-27T16:35:39.914Z,36.33
2022-08-27T16:38:09.749Z,35.57
2022-08-27T16:40:48.786Z,35.45
2022-08-27T16:43:23.041Z,35.20
2022-08-27T16:45:53.658Z,35.31
2022-08-27T16:48:42.610Z,36.45
2022-08-27T16:51:24.188Z,36.41
2022-08-27T16:53:52.889Z,35.78
2022-08-27T16:56:28.702Z,35.75
2022-08-27T16:59:00.444Z,35.84
2022-08-27T17:01:30.051Z,37.67
2022-08-27T17:04:14.510Z,36.12
2022-08-27T17:06:45.145Z,35.77
2022-08-27T17:09:14.116Z,36.59
2022-08-27T17:11:46.409Z,37.03
2022-08-27T17:14:16.113Z,37.29
2022-08-27T17:16:48.366Z,35.99
2022-08-27T17:19:18.670Z,36.49
2022-08-27T17:21:47.218Z,35.95
2022-08-27T17:24:15.866Z,37.09
2022-08-27T17:26:45.425Z,36.39
2022-08-27T17:29:13.965Z,36.19
2022-08-27T17:31:43.650Z,35.76
2022-08-27T17:34:22.100Z,35.35
2022-08-27T17:36:55.756Z,36.13
2022-08-27T17:39:24.203Z,35.72
2022-08-27T17:41:53.420Z,36.21
2022-08-27T17:44:31.734Z,35.75
2022-08-27T17:47:02.933Z,35.80
2022-08-27T17:49:33.088Z,36.06
2022-08-27T17:52:05.393Z,36.12
2022-08-27T17:54:41.181Z,35.68
2022-08-27T17:57:41.015Z,35.32
2022-08-27T18:00:14.482Z,35.23
2022-08-27T18:02:46.657Z,35.23
2022-08-27T18:05:18.815Z,35.31
2022-08-27T18:07:48.906Z,35.48
2022-08-27T18:10:23.762Z,36.40
2022-08-27T18:12:55.220Z,35.83
2022-08-27T18:15:30.258Z,35.45
2022-08-27T18:17:59.423Z,35.26
2022-08-27T18:20:30.329Z,35.99
2022-08-27T18:23:00.200Z,36.06
2022-08-27T18:25:35.766Z,36.24
2022-08-27T18:28:08.057Z,37.71
2022-08-27T18:30:39.447Z,36.42
2022-08-27T18:33:08.744Z,36.34
2022-08-27T18:35:38.699Z,36.28
2022-08-27T18:38:07.526Z,36.46
2022-08-27T18:40:40.607Z,36.41
2022-08-27T18:43:09.244Z,36.48
2022-08-27T18:45:39.332Z,36.42
2022-08-27T18:48:21.640Z,36.54
2022-08-27T18:50:55.556Z,37.78
2022-08-27T18:53:26.057Z,39.65
2022-08-27T18:55:54.962Z,38.53
2022-08-27T18:58:23.935Z,38.33
2022-08-27T19:00:55.934Z,38.84
2022-08-27T19:03:33.945Z,39.06
2022-08-27T19:06:09.675Z,39.08
2022-08-27T19:08:39.659Z,40.00
2022-08-27T19:11:08.431Z,40.07
2022-08-27T19:13:37.247Z,39.82
2022-08-27T19:16:13.592Z,39.36
2022-08-27T19:18:43.035Z,39.10
2022-08-27T19:21:12.611Z,39.03
2022-08-27T19:23:42.323Z,39.71
2022-08-27T19:26:18.104Z,40.19
2022-08-27T19:28:47.572Z,39.58
2022-08-27T19:31:16.636Z,39.66
2022-08-27T19:33:45.298Z,40.76
2022-08-27T19:36:16.140Z,40.33
2022-08-27T19:38:46.478Z,39.46
2022-08-27T19:41:15.094Z,38.72
2022-08-27T19:43:45.963Z,40.74
2022-08-27T19:46:18.277Z,40.81
2022-08-27T19:48:47.505Z,40.32
2022-08-27T19:51:17.296Z,38.99
2022-08-27T19:53:45.970Z,39.20
2022-08-27T19:56:15.135Z,39.73
2022-08-27T19:58:44.643Z,39.77
2022-08-27T20:01:13.195Z,39.19
2022-08-27T20:03:41.735Z,38.54
2022-08-27T20:06:11.754Z,39.55
2022-08-27T20:08:40.194Z,39.35
2022-08-27T20:11:08.650Z,41.27
2022-08-27T20:13:37.990Z,40.03
2022-08-27T20:16:17.065Z,39.14
2022-08-27T20:18:47.677Z,39.02
2022-08-27T20:21:17.156Z,39.15
2022-08-27T20:23:45.826Z,39.05
2022-08-27T20:26:14.358Z,39.17
2022-08-27T20:28:43.258Z,39.27
2022-08-27T20:31:12.544Z,39.93
2022-08-27T20:33:41.314Z,39.88
2022-08-27T20:36:11.858Z,39.34
2022-08-27T20:38:40.438Z,39.81
2022-08-27T20:41:12.064Z,38.85
2022-08-27T20:43:40.514Z,40.41
2022-08-27T20:46:10.990Z,39.54
2022-08-27T20:48:39.602Z,39.44
2022-08-27T20:51:09.145Z,39.31
2022-08-27T20:53:37.736Z,38.80
2022-08-27T20:56:06.430Z,38.28
2022-08-27T20:58:54.617Z,38.25
2022-08-27T21:01:23.617Z,38.08
2022-08-27T21:03:52.201Z,39.00
2022-08-27T21:06:24.963Z,38.72
2022-08-27T21:08:54.891Z,39.26
2022-08-27T21:11:23.863Z,38.89
2022-08-27T21:13:56.450Z,38.91
2022-08-27T21:16:26.001Z,38.88
2022-08-27T21:18:55.723Z,39.04
2022-08-27T21:21:24.322Z,38.81
2022-08-27T21:23:53.206Z,38.93
2022-08-27T21:26:22.962Z,38.72
2022-08-27T21:28:55.608Z,39.94
2022-08-27T21:31:25.612Z,38.94
2022-08-27T21:33:54.383Z,38.86
2022-08-27T21:36:22.877Z,39.30
2022-08-27T21:38:51.618Z,39.25
2022-08-27T21:41:20.652Z,38.62
2022-08-27T21:43:49.689Z,38.40
2022-08-27T21:46:19.860Z,38.04
2022-08-27T21:48:58.502Z,38.32
2022-08-27T21:51:28.006Z,38.42
2022-08-27T21:53:57.620Z,38.91
2022-08-27T21:56:26.967Z,38.67
2022-08-27T21:58:55.740Z,39.10
2022-08-27T22:01:24.323Z,39.36
2022-08-27T22:03:52.940Z,39.54
2022-08-27T22:06:21.630Z,38.85
2022-08-27T22:08:50.258Z,39.51
2022-08-27T22:11:23.962Z,39.48
2022-08-27T22:13:53.267Z,38.83
2022-08-27T22:16:21.943Z,39.65
2022-08-27T22:18:54.989Z,39.73
2022-08-27T22:21:24.459Z,39.91
2022-08-27T22:23:53.207Z,39.37
2022-08-27T22:26:22.162Z,39.66
2022-08-27T22:28:50.857Z,39.45
2022-08-27T22:31:19.727Z,39.41
2022-08-27T22:33:48.436Z,39.87
2022-08-27T22:36:19.139Z,39.57
2022-08-27T22:38:48.715Z,39.50
2022-08-27T22:41:18.582Z,39.23
2022-08-27T22:43:47.280Z,39.27
2022-08-27T22:46:16.022Z,40.01
2022-08-27T22:48:44.842Z,39.61
2022-08-27T22:51:13.625Z,39.80
2022-08-27T22:53:42.156Z,39.39
2022-08-27T22:56:10.580Z,40.02
2022-08-27T22:58:40.637Z,40.00
2022-08-27T23:01:24.684Z,40.32
2022-08-27T23:03:54.061Z,40.42
2022-08-27T23:06:22.625Z,40.99
2022-08-27T23:08:51.551Z,41.18
2022-08-27T23:11:21.025Z,40.64
2022-08-27T23:13:51.741Z,40.77
2022-08-27T23:16:20.768Z,40.69
2022-08-27T23:18:49.237Z,41.20
2022-08-27T23:21:17.684Z,41.08
2022-08-27T23:23:46.269Z,40.42
2022-08-27T23:26:33.377Z,40.75
2022-08-27T23:29:01.883Z,40.96
2022-08-27T23:31:30.388Z,41.18
2022-08-27T23:33:58.904Z,41.18
2022-08-27T23:36:29.263Z,40.85
2022-08-27T23:38:58.417Z,41.65
2022-08-27T23:41:27.234Z,40.96
2022-08-27T23:43:55.778Z,40.37
2022-08-27T23:46:24.744Z,40.83
2022-08-27T23:48:53.357Z,40.62
2022-08-27T23:51:21.930Z,40.43
2022-08-27T23:53:50.407Z,41.12
2022-08-27T23:56:18.829Z,41.18
2022-08-27T23:58:48.363Z,42.20
